sensor_id;sensor_type;location;lat;lon;timestamp;temperature;humidity
74368;DHT22;64991;41.090;-8.118;2023-01-19T00:03:13;14.00;80.60
74368;DHT22;64991;41.090;-8.118;2023-01-19T00:08:18;13.90;80.40
74368;DHT22;64991;41.090;-8.118;2023-01-19T00:13:22;14.00;80.60
74368;DHT22;64991;41.090;-8.118;2023-01-19T00:18:27;14.00;80.60
74368;DHT22;64991;41.090;-8.118;2023-01-19T00:23:30;14.00;80.80
74368;DHT22;64991;41.090;-8.118;2023-01-19T00:28:34;14.00;80.40
74368;DHT22;64991;41.090;-8.118;2023-01-19T00:33:38;14.00;80.50
74368;DHT22;64991;41.090;-8.118;2023-01-19T00:38:42;14.00;80.20
74368;DHT22;64991;41.090;-8.118;2023-01-19T00:43:45;14.00;80.50
74368;DHT22;64991;41.090;-8.118;2023-01-19T00:48:50;14.00;80.50
74368;DHT22;64991;41.090;-8.118;2023-01-19T00:53:54;14.10;80.40
74368;DHT22;64991;41.090;-8.118;2023-01-19T00:58:57;14.00;80.30
74368;DHT22;64991;41.090;-8.118;2023-01-19T01:04:02;14.00;80.20
74368;DHT22;64991;41.090;-8.118;2023-01-19T01:09:06;14.00;80.40
74368;DHT22;64991;41.090;-8.118;2023-01-19T01:14:12;13.90;80.30
74368;DHT22;64991;41.090;-8.118;2023-01-19T01:19:17;13.90;80.50
74368;DHT22;64991;41.090;-8.118;2023-01-19T01:24:21;14.00;80.30
74368;DHT22;64991;41.090;-8.118;2023-01-19T01:29:24;14.00;80.60
74368;DHT22;64991;41.090;-8.118;2023-01-19T01:34:29;14.00;80.30
74368;DHT22;64991;41.090;-8.118;2023-01-19T01:39:32;13.90;80.40
74368;DHT22;64991;41.090;-8.118;2023-01-19T01:44:46;14.00;80.20
74368;DHT22;64991;41.090;-8.118;2023-01-19T01:49:56;13.90;80.30
74368;DHT22;64991;41.090;-8.118;2023-01-19T01:55:04;13.90;80.40
74368;DHT22;64991;41.090;-8.118;2023-01-19T02:00:09;13.90;80.30
74368;DHT22;64991;41.090;-8.118;2023-01-19T02:05:16;13.90;80.40
74368;DHT22;64991;41.090;-8.118;2023-01-19T02:10:22;14.00;80.40
74368;DHT22;64991;41.090;-8.118;2023-01-19T02:15:43;13.90;80.20
74368;DHT22;64991;41.090;-8.118;2023-01-19T02:20:51;13.90;80.10
74368;DHT22;64991;41.090;-8.118;2023-01-19T02:26:00;13.90;80.40
74368;DHT22;64991;41.090;-8.118;2023-01-19T02:31:04;14.00;80.30
74368;DHT22;64991;41.090;-8.118;2023-01-19T02:36:08;13.90;80.10
74368;DHT22;64991;41.090;-8.118;2023-01-19T02:41:16;13.80;80.30
74368;DHT22;64991;41.090;-8.118;2023-01-19T02:46:22;13.90;80.30
74368;DHT22;64991;41.090;-8.118;2023-01-19T02:51:25;13.90;80.20
74368;DHT22;64991;41.090;-8.118;2023-01-19T02:56:36;13.90;80.40
74368;DHT22;64991;41.090;-8.118;2023-01-19T03:01:45;13.90;80.30
74368;DHT22;64991;41.090;-8.118;2023-01-19T03:06:57;14.00;80.20
74368;DHT22;64991;41.090;-8.118;2023-01-19T03:12:07;13.90;79.90
74368;DHT22;64991;41.090;-8.118;2023-01-19T03:17:14;13.90;80.30
74368;DHT22;64991;41.090;-8.118;2023-01-19T03:22:20;13.90;79.90
74368;DHT22;64991;41.090;-8.118;2023-01-19T03:27:28;13.90;80.10
74368;DHT22;64991;41.090;-8.118;2023-01-19T03:32:34;13.90;80.00
74368;DHT22;64991;41.090;-8.118;2023-01-19T03:37:39;13.80;80.10
74368;DHT22;64991;41.090;-8.118;2023-01-19T03:42:46;13.90;80.20
74368;DHT22;64991;41.090;-8.118;2023-01-19T03:47:52;13.80;80.00
74368;DHT22;64991;41.090;-8.118;2023-01-19T03:53:00;13.90;79.60
74368;DHT22;64991;41.090;-8.118;2023-01-19T03:58:06;13.90;79.80
74368;DHT22;64991;41.090;-8.118;2023-01-19T04:03:11;13.90;79.80
74368;DHT22;64991;41.090;-8.118;2023-01-19T04:08:16;13.90;80.00
74368;DHT22;64991;41.090;-8.118;2023-01-19T04:13:21;13.80;80.20
74368;DHT22;64991;41.090;-8.118;2023-01-19T04:18:24;13.90;79.70
74368;DHT22;64991;41.090;-8.118;2023-01-19T04:23:28;13.80;79.90
74368;DHT22;64991;41.090;-8.118;2023-01-19T04:28:33;13.90;79.70
74368;DHT22;64991;41.090;-8.118;2023-01-19T04:33:37;13.80;79.70
74368;DHT22;64991;41.090;-8.118;2023-01-19T04:38:41;13.80;79.70
74368;DHT22;64991;41.090;-8.118;2023-01-19T04:43:46;13.90;79.70
74368;DHT22;64991;41.090;-8.118;2023-01-19T04:48:50;13.80;79.90
74368;DHT22;64991;41.090;-8.118;2023-01-19T04:53:53;13.80;79.70
74368;DHT22;64991;41.090;-8.118;2023-01-19T04:58:59;13.80;79.90
74368;DHT22;64991;41.090;-8.118;2023-01-19T05:04:03;13.80;79.70
74368;DHT22;64991;41.090;-8.118;2023-01-19T05:09:07;13.80;79.70
74368;DHT22;64991;41.090;-8.118;2023-01-19T05:14:15;13.80;79.70
74368;DHT22;64991;41.090;-8.118;2023-01-19T05:19:18;13.70;79.70
74368;DHT22;64991;41.090;-8.118;2023-01-19T05:24:22;13.80;79.70
74368;DHT22;64991;41.090;-8.118;2023-01-19T05:29:27;13.70;79.80
74368;DHT22;64991;41.090;-8.118;2023-01-19T05:34:30;13.70;80.00
74368;DHT22;64991;41.090;-8.118;2023-01-19T05:39:34;13.80;79.50
74368;DHT22;64991;41.090;-8.118;2023-01-19T05:44:39;13.80;79.80
74368;DHT22;64991;41.090;-8.118;2023-01-19T05:49:42;13.70;79.70
74368;DHT22;64991;41.090;-8.118;2023-01-19T05:54:46;13.60;80.30
74368;DHT22;64991;41.090;-8.118;2023-01-19T05:59:51;13.70;79.90
74368;DHT22;64991;41.090;-8.118;2023-01-19T06:04:55;13.70;80.00
74368;DHT22;64991;41.090;-8.118;2023-01-19T06:09:59;13.70;79.80
74368;DHT22;64991;41.090;-8.118;2023-01-19T06:15:04;13.70;79.90
74368;DHT22;64991;41.090;-8.118;2023-01-19T06:20:09;13.60;80.10
74368;DHT22;64991;41.090;-8.118;2023-01-19T06:25:14;13.70;79.90
74368;DHT22;64991;41.090;-8.118;2023-01-19T06:30:20;13.60;80.00
74368;DHT22;64991;41.090;-8.118;2023-01-19T06:35:23;13.60;79.90
74368;DHT22;64991;41.090;-8.118;2023-01-19T06:40:27;13.60;79.70
74368;DHT22;64991;41.090;-8.118;2023-01-19T06:45:32;13.70;79.90
74368;DHT22;64991;41.090;-8.118;2023-01-19T06:50:36;13.70;80.10
74368;DHT22;64991;41.090;-8.118;2023-01-19T06:55:41;13.60;80.10
74368;DHT22;64991;41.090;-8.118;2023-01-19T07:00:46;13.60;80.00
74368;DHT22;64991;41.090;-8.118;2023-01-19T07:05:52;13.40;80.10
74368;DHT22;64991;41.090;-8.118;2023-01-19T07:10:58;13.50;80.30
74368;DHT22;64991;41.090;-8.118;2023-01-19T07:16:24;13.50;80.10
74368;DHT22;64991;41.090;-8.118;2023-01-19T07:21:27;13.50;80.00
74368;DHT22;64991;41.090;-8.118;2023-01-19T07:26:31;13.60;79.90
74368;DHT22;64991;41.090;-8.118;2023-01-19T07:31:36;13.50;80.10
74368;DHT22;64991;41.090;-8.118;2023-01-19T07:36:39;13.50;80.10
74368;DHT22;64991;41.090;-8.118;2023-01-19T07:41:43;13.40;80.20
74368;DHT22;64991;41.090;-8.118;2023-01-19T07:46:48;13.40;79.90
74368;DHT22;64991;41.090;-8.118;2023-01-19T07:51:51;13.30;80.20
74368;DHT22;64991;41.090;-8.118;2023-01-19T07:56:57;13.50;80.20
74368;DHT22;64991;41.090;-8.118;2023-01-19T08:02:02;13.40;80.10
74368;DHT22;64991;41.090;-8.118;2023-01-19T08:07:06;13.40;80.20
74368;DHT22;64991;41.090;-8.118;2023-01-19T08:12:10;13.40;80.20
74368;DHT22;64991;41.090;-8.118;2023-01-19T08:17:15;13.40;79.90
74368;DHT22;64991;41.090;-8.118;2023-01-19T08:22:20;13.40;80.30
74368;DHT22;64991;41.090;-8.118;2023-01-19T08:27:23;13.40;80.20
74368;DHT22;64991;41.090;-8.118;2023-01-19T08:32:28;13.40;80.30
74368;DHT22;64991;41.090;-8.118;2023-01-19T08:37:32;13.50;80.20
74368;DHT22;64991;41.090;-8.118;2023-01-19T08:42:35;13.40;80.20
74368;DHT22;64991;41.090;-8.118;2023-01-19T08:47:40;13.40;80.10
74368;DHT22;64991;41.090;-8.118;2023-01-19T08:52:44;13.30;80.20
74368;DHT22;64991;41.090;-8.118;2023-01-19T08:57:49;13.30;80.50
74368;DHT22;64991;41.090;-8.118;2023-01-19T09:02:54;13.30;80.10
74368;DHT22;64991;41.090;-8.118;2023-01-19T09:07:58;13.30;80.30
74368;DHT22;64991;41.090;-8.118;2023-01-19T09:13:02;13.40;80.30
74368;DHT22;64991;41.090;-8.118;2023-01-19T09:18:07;13.40;80.00
74368;DHT22;64991;41.090;-8.118;2023-01-19T09:23:15;13.40;80.10
74368;DHT22;64991;41.090;-8.118;2023-01-19T09:28:19;13.40;80.10
74368;DHT22;64991;41.090;-8.118;2023-01-19T09:33:24;13.30;80.30
74368;DHT22;64991;41.090;-8.118;2023-01-19T09:38:28;13.40;80.30
74368;DHT22;64991;41.090;-8.118;2023-01-19T09:43:34;13.30;80.10
74368;DHT22;64991;41.090;-8.118;2023-01-19T09:48:45;13.30;80.20
74368;DHT22;64991;41.090;-8.118;2023-01-19T09:53:59;13.40;79.80
74368;DHT22;64991;41.090;-8.118;2023-01-19T09:59:17;13.30;80.00
74368;DHT22;64991;41.090;-8.118;2023-01-19T10:04:28;13.30;80.20
74368;DHT22;64991;41.090;-8.118;2023-01-19T10:09:35;13.30;80.20
74368;DHT22;64991;41.090;-8.118;2023-01-19T10:14:43;13.50;79.80
74368;DHT22;64991;41.090;-8.118;2023-01-19T10:19:52;13.60;79.90
74368;DHT22;64991;41.090;-8.118;2023-01-19T10:24:57;13.60;79.80
74368;DHT22;64991;41.090;-8.118;2023-01-19T10:30:02;13.60;79.70
74368;DHT22;64991;41.090;-8.118;2023-01-19T10:35:11;13.70;79.60
74368;DHT22;64991;41.090;-8.118;2023-01-19T10:40:25;13.60;79.70
74368;DHT22;64991;41.090;-8.118;2023-01-19T10:45:32;13.60;79.60
74368;DHT22;64991;41.090;-8.118;2023-01-19T10:50:38;13.60;79.40
74368;DHT22;64991;41.090;-8.118;2023-01-19T10:55:42;13.70;79.70
74368;DHT22;64991;41.090;-8.118;2023-01-19T11:00:46;13.70;79.60
74368;DHT22;64991;41.090;-8.118;2023-01-19T11:05:51;13.60;79.60
74368;DHT22;64991;41.090;-8.118;2023-01-19T11:10:55;13.50;79.80
74368;DHT22;64991;41.090;-8.118;2023-01-19T11:16:03;13.50;79.90
74368;DHT22;64991;41.090;-8.118;2023-01-19T11:21:10;13.60;79.60
74368;DHT22;64991;41.090;-8.118;2023-01-19T11:26:15;13.60;79.80
74368;DHT22;64991;41.090;-8.118;2023-01-19T11:31:30;13.60;79.70
74368;DHT22;64991;41.090;-8.118;2023-01-19T11:36:36;13.60;79.70
74368;DHT22;64991;41.090;-8.118;2023-01-19T11:41:40;13.70;79.60
74368;DHT22;64991;41.090;-8.118;2023-01-19T11:46:45;13.60;79.70
74368;DHT22;64991;41.090;-8.118;2023-01-19T11:51:55;13.60;79.70
74368;DHT22;64991;41.090;-8.118;2023-01-19T11:57:02;13.60;79.50
74368;DHT22;64991;41.090;-8.118;2023-01-19T12:02:15;13.60;79.90
74368;DHT22;64991;41.090;-8.118;2023-01-19T12:07:24;13.60;79.80
74368;DHT22;64991;41.090;-8.118;2023-01-19T12:12:30;13.60;79.80
74368;DHT22;64991;41.090;-8.118;2023-01-19T12:17:36;13.60;79.90
74368;DHT22;64991;41.090;-8.118;2023-01-19T12:22:47;13.60;79.90
74368;DHT22;64991;41.090;-8.118;2023-01-19T12:27:54;13.70;79.70
74368;DHT22;64991;41.090;-8.118;2023-01-19T12:38:42;13.60;80.00
74368;DHT22;64991;41.090;-8.118;2023-01-19T12:43:48;13.60;80.00
74368;DHT22;64991;41.090;-8.118;2023-01-19T12:49:21;13.70;80.00
74368;DHT22;64991;41.090;-8.118;2023-01-19T12:54:29;13.60;80.20
74368;DHT22;64991;41.090;-8.118;2023-01-19T12:59:34;13.60;80.20
74368;DHT22;64991;41.090;-8.118;2023-01-19T13:04:38;13.60;80.10
74368;DHT22;64991;41.090;-8.118;2023-01-19T13:09:43;13.60;80.10
74368;DHT22;64991;41.090;-8.118;2023-01-19T13:14:46;13.60;80.50
74368;DHT22;64991;41.090;-8.118;2023-01-19T13:19:53;13.70;80.40
74368;DHT22;64991;41.090;-8.118;2023-01-19T13:25:06;13.60;80.30
74368;DHT22;64991;41.090;-8.118;2023-01-19T13:30:11;13.60;80.30
74368;DHT22;64991;41.090;-8.118;2023-01-19T13:35:18;13.60;80.70
74368;DHT22;64991;41.090;-8.118;2023-01-19T13:40:24;13.60;80.60
74368;DHT22;64991;41.090;-8.118;2023-01-19T13:45:34;13.60;80.50
74368;DHT22;64991;41.090;-8.118;2023-01-19T13:50:40;13.60;80.60
74368;DHT22;64991;41.090;-8.118;2023-01-19T13:55:47;13.60;80.60
74368;DHT22;64991;41.090;-8.118;2023-01-19T14:00:52;13.70;80.60
74368;DHT22;64991;41.090;-8.118;2023-01-19T14:05:55;13.50;80.50
74368;DHT22;64991;41.090;-8.118;2023-01-19T14:11:01;13.60;80.50
74368;DHT22;64991;41.090;-8.118;2023-01-19T14:16:05;13.60;80.70
74368;DHT22;64991;41.090;-8.118;2023-01-19T14:21:10;13.60;80.80
74368;DHT22;64991;41.090;-8.118;2023-01-19T14:31:46;13.50;80.80
74368;DHT22;64991;41.090;-8.118;2023-01-19T14:36:50;13.60;81.00
74368;DHT22;64991;41.090;-8.118;2023-01-19T14:41:56;13.60;80.90
74368;DHT22;64991;41.090;-8.118;2023-01-19T14:47:01;13.60;80.90
74368;DHT22;64991;41.090;-8.118;2023-01-19T14:52:06;13.50;81.00
74368;DHT22;64991;41.090;-8.118;2023-01-19T14:57:19;13.60;80.70
74368;DHT22;64991;41.090;-8.118;2023-01-19T15:02:22;13.60;80.90
74368;DHT22;64991;41.090;-8.118;2023-01-19T15:07:26;13.60;81.00
74368;DHT22;64991;41.090;-8.118;2023-01-19T15:12:31;13.60;81.00
74368;DHT22;64991;41.090;-8.118;2023-01-19T15:17:35;13.60;81.40
74368;DHT22;64991;41.090;-8.118;2023-01-19T15:22:38;13.60;81.20
74368;DHT22;64991;41.090;-8.118;2023-01-19T15:27:43;13.60;81.20
74368;DHT22;64991;41.090;-8.118;2023-01-19T15:32:48;13.70;81.30
74368;DHT22;64991;41.090;-8.118;2023-01-19T15:37:51;13.50;81.50
74368;DHT22;64991;41.090;-8.118;2023-01-19T15:42:56;13.50;81.50
74368;DHT22;64991;41.090;-8.118;2023-01-19T15:48:00;13.50;81.50
74368;DHT22;64991;41.090;-8.118;2023-01-19T15:53:04;13.60;81.60
74368;DHT22;64991;41.090;-8.118;2023-01-19T15:58:09;13.50;81.40
74368;DHT22;64991;41.090;-8.118;2023-01-19T16:03:14;13.50;81.60
74368;DHT22;64991;41.090;-8.118;2023-01-19T16:08:18;13.60;81.50
74368;DHT22;64991;41.090;-8.118;2023-01-19T16:13:24;13.60;81.80
74368;DHT22;64991;41.090;-8.118;2023-01-19T16:18:30;13.50;81.70
74368;DHT22;64991;41.090;-8.118;2023-01-19T16:23:34;13.50;81.80
74368;DHT22;64991;41.090;-8.118;2023-01-19T16:28:39;13.50;81.80
74368;DHT22;64991;41.090;-8.118;2023-01-19T16:33:43;13.50;81.80
74368;DHT22;64991;41.090;-8.118;2023-01-19T16:38:46;13.50;81.90
74368;DHT22;64991;41.090;-8.118;2023-01-19T16:43:52;13.60;82.00
74368;DHT22;64991;41.090;-8.118;2023-01-19T16:48:57;13.60;81.80
74368;DHT22;64991;41.090;-8.118;2023-01-19T16:54:17;13.50;82.00
74368;DHT22;64991;41.090;-8.118;2023-01-19T16:59:23;13.60;81.90
74368;DHT22;64991;41.090;-8.118;2023-01-19T17:04:28;13.50;82.20
74368;DHT22;64991;41.090;-8.118;2023-01-19T17:09:31;13.50;82.30
74368;DHT22;64991;41.090;-8.118;2023-01-19T17:14:37;13.50;82.10
74368;DHT22;64991;41.090;-8.118;2023-01-19T17:19:41;13.50;82.20
74368;DHT22;64991;41.090;-8.118;2023-01-19T17:24:45;13.50;82.30
74368;DHT22;64991;41.090;-8.118;2023-01-19T17:29:51;13.60;82.20
74368;DHT22;64991;41.090;-8.118;2023-01-19T17:34:54;13.50;82.20
74368;DHT22;64991;41.090;-8.118;2023-01-19T17:39:58;13.50;82.50
74368;DHT22;64991;41.090;-8.118;2023-01-19T17:45:03;13.60;82.30
74368;DHT22;64991;41.090;-8.118;2023-01-19T17:50:07;13.60;82.30
74368;DHT22;64991;41.090;-8.118;2023-01-19T17:55:12;13.60;82.20
74368;DHT22;64991;41.090;-8.118;2023-01-19T18:00:17;13.60;82.40
74368;DHT22;64991;41.090;-8.118;2023-01-19T18:05:21;13.50;82.60
74368;DHT22;64991;41.090;-8.118;2023-01-19T18:10:25;13.50;82.50
74368;DHT22;64991;41.090;-8.118;2023-01-19T18:15:30;13.50;82.40
74368;DHT22;64991;41.090;-8.118;2023-01-19T18:20:33;13.50;82.50
74368;DHT22;64991;41.090;-8.118;2023-01-19T18:25:40;13.60;82.50
74368;DHT22;64991;41.090;-8.118;2023-01-19T18:30:45;13.50;82.50
74368;DHT22;64991;41.090;-8.118;2023-01-19T18:35:48;13.50;82.70
74368;DHT22;64991;41.090;-8.118;2023-01-19T18:40:58;13.50;82.60
74368;DHT22;64991;41.090;-8.118;2023-01-19T18:46:04;13.50;82.40
74368;DHT22;64991;41.090;-8.118;2023-01-19T18:51:09;13.60;82.50
74368;DHT22;64991;41.090;-8.118;2023-01-19T18:56:14;13.50;82.70
74368;DHT22;64991;41.090;-8.118;2023-01-19T19:01:23;13.60;82.50
74368;DHT22;64991;41.090;-8.118;2023-01-19T19:06:27;13.50;82.50
74368;DHT22;64991;41.090;-8.118;2023-01-19T19:11:31;13.50;82.80
74368;DHT22;64991;41.090;-8.118;2023-01-19T19:16:36;13.60;82.60
74368;DHT22;64991;41.090;-8.118;2023-01-19T19:21:40;13.50;82.80
74368;DHT22;64991;41.090;-8.118;2023-01-19T19:26:43;13.50;82.80
74368;DHT22;64991;41.090;-8.118;2023-01-19T19:31:48;13.50;82.80
74368;DHT22;64991;41.090;-8.118;2023-01-19T19:36:52;13.60;82.60
74368;DHT22;64991;41.090;-8.118;2023-01-19T19:41:55;13.50;82.80
74368;DHT22;64991;41.090;-8.118;2023-01-19T19:47:00;13.50;82.80
74368;DHT22;64991;41.090;-8.118;2023-01-19T19:52:03;13.50;82.50
74368;DHT22;64991;41.090;-8.118;2023-01-19T19:57:07;13.60;82.70
74368;DHT22;64991;41.090;-8.118;2023-01-19T20:02:12;13.50;83.10
74368;DHT22;64991;41.090;-8.118;2023-01-19T20:07:15;13.50;82.70
74368;DHT22;64991;41.090;-8.118;2023-01-19T20:12:18;13.50;82.80
74368;DHT22;64991;41.090;-8.118;2023-01-19T20:17:23;13.50;82.90
74368;DHT22;64991;41.090;-8.118;2023-01-19T20:22:27;13.50;83.10
74368;DHT22;64991;41.090;-8.118;2023-01-19T20:27:30;13.50;82.70
74368;DHT22;64991;41.090;-8.118;2023-01-19T20:32:35;13.50;82.90
74368;DHT22;64991;41.090;-8.118;2023-01-19T20:37:40;13.50;82.80
74368;DHT22;64991;41.090;-8.118;2023-01-19T20:42:44;13.50;82.80
74368;DHT22;64991;41.090;-8.118;2023-01-19T20:47:49;13.60;82.70
74368;DHT22;64991;41.090;-8.118;2023-01-19T20:52:53;13.60;82.90
74368;DHT22;64991;41.090;-8.118;2023-01-19T20:57:56;13.60;82.80
74368;DHT22;64991;41.090;-8.118;2023-01-19T21:03:01;13.50;82.70
74368;DHT22;64991;41.090;-8.118;2023-01-19T21:08:04;13.50;83.00
74368;DHT22;64991;41.090;-8.118;2023-01-19T21:13:08;13.50;83.00
74368;DHT22;64991;41.090;-8.118;2023-01-19T21:18:12;13.50;83.00
74368;DHT22;64991;41.090;-8.118;2023-01-19T21:23:16;13.60;83.10
74368;DHT22;64991;41.090;-8.118;2023-01-19T21:28:20;13.60;83.20
74368;DHT22;64991;41.090;-8.118;2023-01-19T21:33:25;13.60;83.10
74368;DHT22;64991;41.090;-8.118;2023-01-19T21:38:29;13.50;83.10
74368;DHT22;64991;41.090;-8.118;2023-01-19T21:43:34;13.50;83.30
74368;DHT22;64991;41.090;-8.118;2023-01-19T21:48:39;13.60;83.30
74368;DHT22;64991;41.090;-8.118;2023-01-19T21:53:42;13.50;83.20
74368;DHT22;64991;41.090;-8.118;2023-01-19T21:58:46;13.50;83.30
74368;DHT22;64991;41.090;-8.118;2023-01-19T22:03:53;13.50;83.20
74368;DHT22;64991;41.090;-8.118;2023-01-19T22:08:57;13.60;83.40
74368;DHT22;64991;41.090;-8.118;2023-01-19T22:14:01;13.60;83.20
74368;DHT22;64991;41.090;-8.118;2023-01-19T22:19:08;13.50;83.20
74368;DHT22;64991;41.090;-8.118;2023-01-19T22:24:13;13.50;83.10
74368;DHT22;64991;41.090;-8.118;2023-01-19T22:29:16;13.60;83.10
74368;DHT22;64991;41.090;-8.118;2023-01-19T22:34:21;13.50;83.30
74368;DHT22;64991;41.090;-8.118;2023-01-19T22:39:25;13.60;83.50
74368;DHT22;64991;41.090;-8.118;2023-01-19T22:44:28;13.50;83.30
74368;DHT22;64991;41.090;-8.118;2023-01-19T22:49:33;13.50;83.30
74368;DHT22;64991;41.090;-8.118;2023-01-19T22:54:36;13.50;83.60
74368;DHT22;64991;41.090;-8.118;2023-01-19T22:59:40;13.50;83.60
74368;DHT22;64991;41.090;-8.118;2023-01-19T23:04:45;13.50;83.80
74368;DHT22;64991;41.090;-8.118;2023-01-19T23:09:49;13.40;83.40
74368;DHT22;64991;41.090;-8.118;2023-01-19T23:14:52;13.60;83.60
74368;DHT22;64991;41.090;-8.118;2023-01-19T23:19:57;13.60;83.60
74368;DHT22;64991;41.090;-8.118;2023-01-19T23:25:00;13.60;83.60
74368;DHT22;64991;41.090;-8.118;2023-01-19T23:30:04;13.50;83.50
74368;DHT22;64991;41.090;-8.118;2023-01-19T23:35:11;13.50;84.00
74368;DHT22;64991;41.090;-8.118;2023-01-19T23:40:15;13.60;83.80
74368;DHT22;64991;41.090;-8.118;2023-01-19T23:45:19;13.60;83.60
74368;DHT22;64991;41.090;-8.118;2023-01-19T23:50:23;13.50;83.60
74368;DHT22;64991;41.090;-8.118;2023-01-19T23:55:27;13.60;83.70
